Time;durP1;ratioP1;P1;durP2;ratioP2;P2;SDS_P1;SDS_P2;PMS_P1;PMS_P2;Temp;Humidity;BMP_temperature;BMP_pressure;BME280_temperature;BME280_humidity;BME280_pressure;Samples;Min_cycle;Max_cycle;Signal;HPM_P1;HPM_P2
2021/11/13 00:00:23;;;;;;;24.38;14.05;;;10.80;92.30;;;;;;5083886;28;20287;-74
2021/11/13 00:02:50;;;;;;;26.83;14.25;;;10.90;92.40;;;;;;5079761;28;20054;-73
2021/11/13 00:05:17;;;;;;;26.98;13.90;;;10.80;92.40;;;;;;5082458;28;20078;-73
2021/11/13 00:07:43;;;;;;;27.83;14.50;;;10.90;92.40;;;;;;5081317;28;20043;-72
2021/11/13 00:10:11;;;;;;;23.10;13.30;;;10.90;92.40;;;;;;5079354;28;20580;-74
2021/11/13 00:12:38;;;;;;;21.15;13.82;;;11.00;92.50;;;;;;5082050;28;20039;-72
2021/11/13 00:15:06;;;;;;;26.60;14.55;;;11.00;92.70;;;;;;5083350;28;20058;-73
2021/11/13 00:17:32;;;;;;;23.70;14.85;;;11.00;92.70;;;;;;5080136;28;20120;-72
2021/11/13 00:19:58;;;;;;;26.83;15.25;;;11.00;92.80;;;;;;5083262;28;20123;-72
2021/11/13 00:22:23;;;;;;;28.95;15.48;;;11.00;93.00;;;;;;5086397;28;20111;-74
2021/11/13 00:24:49;;;;;;;26.35;16.15;;;11.00;93.10;;;;;;5090265;27;20036;-73
2021/11/13 00:27:16;;;;;;;22.27;13.48;;;11.00;93.20;;;;;;5088833;27;20056;-72
2021/11/13 00:29:42;;;;;;;24.48;13.85;;;11.00;93.30;;;;;;5083756;28;20128;-71
2021/11/13 00:32:07;;;;;;;26.13;14.80;;;11.00;93.40;;;;;;5086656;28;20131;-71
2021/11/13 00:34:34;;;;;;;22.83;13.43;;;11.00;93.40;;;;;;5086850;28;20047;-72
2021/11/13 00:37:00;;;;;;;26.55;13.20;;;11.00;93.50;;;;;;5085826;28;20024;-72
2021/11/13 00:39:27;;;;;;;20.27;11.52;;;11.10;93.50;;;;;;5068146;28;20486;-72
2021/11/13 00:41:53;;;;;;;23.95;13.40;;;11.10;93.50;;;;;;5096672;27;20479;-72
2021/11/13 00:44:19;;;;;;;26.30;11.85;;;11.10;93.60;;;;;;5089661;27;20059;-72
2021/11/13 00:46:45;;;;;;;20.75;11.30;;;11.10;93.60;;;;;;5084621;28;20035;-72
2021/11/13 00:49:11;;;;;;;18.58;10.18;;;11.10;93.70;;;;;;5066202;28;20037;-72
2021/11/13 00:51:37;;;;;;;20.20;9.80;;;11.10;93.80;;;;;;5062947;28;20508;-72
2021/11/13 00:54:05;;;;;;;17.73;8.73;;;11.20;93.80;;;;;;5062986;28;20033;-71
2021/11/13 00:56:31;;;;;;;18.10;8.88;;;11.10;93.90;;;;;;5066288;28;20043;-71
2021/11/13 00:58:56;;;;;;;14.15;7.60;;;11.20;94.00;;;;;;5065533;28;20071;-71
2021/11/13 01:01:22;;;;;;;14.98;8.10;;;11.30;94.10;;;;;;5063587;28;20033;-72
2021/11/13 01:03:48;;;;;;;15.52;8.02;;;11.20;94.00;;;;;;5056095;28;20549;-72
2021/11/13 01:06:14;;;;;;;16.65;8.05;;;11.20;94.00;;;;;;5065251;28;20051;-73
2021/11/13 01:08:40;;;;;;;17.15;8.20;;;11.20;94.10;;;;;;5070458;28;20028;-71
2021/11/13 01:11:08;;;;;;;14.88;8.02;;;11.20;94.10;;;;;;5081050;27;20067;-72
2021/11/13 01:13:34;;;;;;;13.30;8.57;;;11.30;94.10;;;;;;5083131;28;20483;-72
2021/11/13 01:16:00;;;;;;;16.40;8.40;;;11.30;94.10;;;;;;5076422;28;20048;-74
2021/11/13 01:18:26;;;;;;;14.30;7.93;;;11.20;94.10;;;;;;5069457;28;20032;-71
2021/11/13 01:20:53;;;;;;;14.63;7.45;;;11.30;94.10;;;;;;5068459;28;20547;-73
2021/11/13 01:23:19;;;;;;;13.35;7.65;;;11.40;94.10;;;;;;5083739;27;20024;-72
2021/11/13 01:25:45;;;;;;;15.70;7.22;;;11.30;94.10;;;;;;5077051;28;20037;-71
2021/11/13 01:28:11;;;;;;;17.33;6.63;;;11.40;94.10;;;;;;5079296;28;20024;-72
2021/11/13 01:30:36;;;;;;;16.92;6.90;;;11.40;94.10;;;;;;5086401;28;20036;-72
2021/11/13 01:33:02;;;;;;;14.73;6.57;;;11.40;94.20;;;;;;5079879;28;20369;-71
2021/11/13 01:35:28;;;;;;;13.73;6.97;;;11.40;94.10;;;;;;5086770;28;20325;-72
2021/11/13 01:37:54;;;;;;;19.20;7.45;;;11.40;94.10;;;;;;5077112;27;20029;-71
2021/11/13 01:40:23;;;;;;;14.60;6.32;;;11.40;94.20;;;;;;5082961;27;20086;-72
2021/11/13 01:42:49;;;;;;;13.48;6.15;;;11.40;94.10;;;;;;5089833;28;20077;-72
2021/11/13 01:45:17;;;;;;;14.25;5.95;;;11.40;94.10;;;;;;5087086;27;20031;-72
2021/11/13 01:47:44;;;;;;;14.48;6.07;;;11.40;94.00;;;;;;5070665;27;20117;-72
2021/11/13 01:50:21;;;;;;;13.20;6.05;;;11.40;94.00;;;;;;5075839;27;20498;-74
2021/11/13 01:52:49;;;;;;;11.88;5.93;;;11.40;94.00;;;;;;5078991;28;20040;-74
2021/11/13 01:55:17;;;;;;;11.93;5.20;;;11.40;94.00;;;;;;5081059;28;20035;-73
2021/11/13 01:57:50;;;;;;;10.52;5.05;;;11.40;94.00;;;;;;5083161;27;20663;-71
2021/11/13 02:00:27;;;;;;;11.40;6.00;;;11.40;94.00;;;;;;5085446;28;20535;-71
2021/11/13 02:02:52;;;;;;;12.60;6.30;;;11.40;94.00;;;;;;5083171;28;20482;-71
2021/11/13 02:05:18;;;;;;;14.38;6.30;;;11.40;94.00;;;;;;5083979;28;20028;-71
2021/11/13 02:07:44;;;;;;;12.00;6.20;;;11.40;94.00;;;;;;5074634;28;20479;-71
2021/11/13 02:10:12;;;;;;;12.18;6.70;;;11.40;94.00;;;;;;5073548;27;20056;-72
2021/11/13 02:12:38;;;;;;;9.65;5.50;;;11.40;94.00;;;;;;5078213;28;20277;-71
2021/11/13 02:15:04;;;;;;;12.55;5.10;;;11.40;94.00;;;;;;5086546;27;20052;-71
2021/11/13 02:17:30;;;;;;;13.05;5.65;;;11.40;94.00;;;;;;5084463;28;20036;-75
2021/11/13 02:19:56;;;;;;;11.07;5.38;;;11.30;94.00;;;;;;5059054;28;20033;-71
2021/11/13 02:22:23;;;;;;;12.73;6.07;;;11.40;94.00;;;;;;5061423;28;20040;-70
2021/11/13 02:24:49;;;;;;;10.93;4.78;;;11.40;94.00;;;;;;5057468;28;20040;-71
2021/11/13 02:27:15;;;;;;;10.57;5.15;;;11.40;93.90;;;;;;5059203;28;20037;-72
2021/11/13 02:29:40;;;;;;;9.23;4.20;;;11.30;93.90;;;;;;5060261;28;20036;-71
2021/11/13 02:32:07;;;;;;;8.25;4.32;;;11.30;93.90;;;;;;5063275;28;20045;-73
2021/11/13 02:34:33;;;;;;;10.00;4.15;;;11.30;93.90;;;;;;5061543;28;20492;-71
2021/11/13 02:36:58;;;;;;;8.65;4.03;;;11.20;93.90;;;;;;5062785;28;20037;-73
2021/11/13 02:39:24;;;;;;;7.65;3.78;;;11.20;93.90;;;;;;5073129;28;20039;-72
2021/11/13 02:41:50;;;;;;;8.48;3.80;;;11.20;93.80;;;;;;5072403;28;20036;-71
2021/11/13 02:44:21;;;;;;;7.50;3.95;;;11.20;93.80;;;;;;5078772;28;20035;-71
2021/11/13 02:46:47;;;;;;;8.32;4.20;;;11.10;93.80;;;;;;5081080;28;20052;-71
2021/11/13 02:49:14;;;;;;;11.45;4.25;;;11.10;93.80;;;;;;5083735;28;20059;-73
2021/11/13 02:51:43;;;;;;;9.73;3.95;;;11.10;93.90;;;;;;5073667;28;20039;-72
2021/11/13 02:54:08;;;;;;;10.10;3.90;;;11.10;94.00;;;;;;5069034;28;20411;-72
2021/11/13 02:56:34;;;;;;;10.25;4.35;;;11.10;94.00;;;;;;5060291;28;20035;-72
2021/11/13 02:59:00;;;;;;;8.88;3.95;;;11.10;94.00;;;;;;5062029;28;20068;-71
2021/11/13 03:01:26;;;;;;;7.88;4.25;;;11.10;94.00;;;;;;5059517;28;20081;-72
2021/11/13 03:03:55;;;;;;;12.02;4.88;;;11.10;94.00;;;;;;5062282;28;20094;-71
2021/11/13 03:06:22;;;;;;;10.10;4.65;;;11.10;94.00;;;;;;5079604;28;20043;-72
2021/11/13 03:08:53;;;;;;;10.23;4.47;;;11.10;94.00;;;;;;5079848;28;20421;-72
2021/11/13 03:11:19;;;;;;;11.38;5.07;;;11.10;94.00;;;;;;5075975;28;20127;-71
2021/11/13 03:13:47;;;;;;;12.77;5.20;;;11.10;94.00;;;;;;5079292;28;20032;-72
2021/11/13 03:16:15;;;;;;;11.23;5.03;;;11.10;94.00;;;;;;5083393;28;20056;-71
2021/11/13 03:18:41;;;;;;;9.82;5.63;;;11.10;94.00;;;;;;5087579;28;20040;-71
2021/11/13 03:21:07;;;;;;;11.45;5.10;;;11.10;94.00;;;;;;5083681;28;20039;-72
2021/11/13 03:23:38;;;;;;;13.13;5.45;;;11.10;93.90;;;;;;5084583;28;20107;-75
2021/11/13 03:26:26;;;;;;;11.05;4.95;;;11.10;94.00;;;;;;5088735;28;20151;-72
2021/11/13 03:28:56;;;;;;;12.40;5.15;;;11.10;94.00;;;;;;5079713;28;20091;-71
2021/11/13 03:31:24;;;;;;;10.95;5.60;;;11.10;94.00;;;;;;5083355;28;20531;-72
2021/11/13 03:33:51;;;;;;;11.98;5.78;;;11.10;94.00;;;;;;5084948;28;20028;-72
2021/11/13 03:36:19;;;;;;;14.93;5.60;;;11.10;94.00;;;;;;5083043;28;20036;-72
2021/11/13 03:38:47;;;;;;;15.30;6.28;;;11.10;94.10;;;;;;5084587;28;20032;-72
2021/11/13 03:41:13;;;;;;;14.85;6.40;;;11.10;94.10;;;;;;5087917;28;20033;-71
2021/11/13 03:43:39;;;;;;;15.40;6.53;;;11.20;94.20;;;;;;5070945;27;20173;-73
2021/11/13 03:46:07;;;;;;;15.73;6.63;;;11.20;94.20;;;;;;5084230;28;20070;-71
2021/11/13 03:48:33;;;;;;;14.48;6.38;;;11.20;94.20;;;;;;5087671;28;20032;-73
2021/11/13 03:50:59;;;;;;;15.93;7.60;;;11.20;94.20;;;;;;5087305;28;20089;-71
2021/11/13 03:53:25;;;;;;;16.85;7.63;;;11.20;94.20;;;;;;5084965;27;20574;-72
2021/11/13 03:55:50;;;;;;;18.25;8.80;;;11.30;94.20;;;;;;5077689;27;20092;-72
2021/11/13 03:58:16;;;;;;;16.95;7.57;;;11.30;94.30;;;;;;5087786;27;20165;-71
2021/11/13 04:00:42;;;;;;;21.25;8.98;;;11.30;94.30;;;;;;5081859;28;20368;-71
2021/11/13 04:03:08;;;;;;;17.63;8.43;;;11.30;94.30;;;;;;5087560;27;20036;-72
2021/11/13 04:05:34;;;;;;;17.90;8.57;;;11.40;94.40;;;;;;5084715;28;20051;-71
2021/11/13 04:08:00;;;;;;;17.02;8.20;;;11.40;94.30;;;;;;5088588;28;20404;-72
2021/11/13 04:10:26;;;;;;;18.27;8.73;;;11.50;94.40;;;;;;5070956;28;20043;-71
2021/11/13 04:12:52;;;;;;;19.52;8.02;;;11.50;94.30;;;;;;5076192;28;20048;-71
2021/11/13 04:15:18;;;;;;;21.50;8.48;;;11.50;94.20;;;;;;5083027;28;20055;-71
2021/11/13 04:17:46;;;;;;;18.77;7.40;;;11.50;94.20;;;;;;5084878;28;20036;-72
2021/11/13 04:20:12;;;;;;;16.80;9.00;;;11.50;94.10;;;;;;5082028;28;20037;-73
2021/11/13 04:22:39;;;;;;;17.45;7.47;;;11.50;94.10;;;;;;5088320;28;20333;-72
2021/11/13 04:25:05;;;;;;;17.17;7.50;;;11.50;94.10;;;;;;5085179;28;20039;-73
2021/11/13 04:27:31;;;;;;;17.65;7.20;;;11.50;94.00;;;;;;5075183;27;20052;-72
2021/11/13 04:29:58;;;;;;;19.80;7.65;;;11.50;94.00;;;;;;5078546;28;20036;-72
2021/11/13 04:32:28;;;;;;;16.05;7.10;;;11.50;94.10;;;;;;5082558;28;20483;-72
2021/11/13 04:37:23;;;;;;;20.38;6.88;;;11.50;94.00;;;;;;5059795;28;20425;-73
2021/11/13 04:39:49;;;;;;;20.60;6.68;;;11.50;94.00;;;;;;5069727;28;20036;-72
2021/11/13 04:42:16;;;;;;;13.43;5.15;;;11.50;94.00;;;;;;5084315;28;20048;-72
2021/11/13 04:44:42;;;;;;;13.40;4.50;;;11.50;93.90;;;;;;5065833;28;20493;-73
2021/11/13 04:47:08;;;;;;;13.30;4.80;;;11.50;93.90;;;;;;5065508;28;20033;-72
2021/11/13 04:49:34;;;;;;;13.60;4.55;;;11.50;93.90;;;;;;5067018;28;20033;-72
2021/11/13 04:52:03;;;;;;;15.55;4.00;;;11.50;93.90;;;;;;5068277;28;20060;-72
2021/11/13 04:54:29;;;;;;;16.90;5.03;;;11.50;93.90;;;;;;5068312;28;20041;-72
2021/11/13 04:56:56;;;;;;;13.30;4.38;;;11.50;93.90;;;;;;5065340;28;20388;-73
2021/11/13 04:59:22;;;;;;;22.55;4.80;;;11.50;93.90;;;;;;5067308;28;20051;-72
2021/11/13 05:01:49;;;;;;;14.02;4.70;;;11.40;93.90;;;;;;5078881;28;20456;-72
2021/11/13 05:04:14;;;;;;;14.55;4.50;;;11.50;93.90;;;;;;5069887;28;20403;-74
2021/11/13 05:06:40;;;;;;;14.48;4.85;;;11.50;93.80;;;;;;5067559;28;20037;-73
2021/11/13 05:09:05;;;;;;;14.32;4.68;;;11.50;93.70;;;;;;5067389;28;20556;-72
2021/11/13 05:11:31;;;;;;;22.20;5.45;;;11.50;93.70;;;;;;5077535;28;20059;-72
2021/11/13 05:13:58;;;;;;;12.02;4.53;;;11.50;93.70;;;;;;5083103;28;20119;-72
2021/11/13 05:16:24;;;;;;;13.88;4.53;;;11.50;93.70;;;;;;5069133;28;20025;-72
2021/11/13 05:18:49;;;;;;;15.55;5.10;;;11.50;93.60;;;;;;5063606;28;20040;-72
2021/11/13 05:21:15;;;;;;;13.23;4.57;;;11.50;93.50;;;;;;5066675;28;20044;-72
2021/11/13 05:23:42;;;;;;;14.63;5.35;;;11.50;93.50;;;;;;5074710;28;20032;-74
2021/11/13 05:26:08;;;;;;;15.82;4.95;;;11.50;93.40;;;;;;5065421;28;20392;-72
2021/11/13 05:28:34;;;;;;;13.45;4.70;;;11.50;93.40;;;;;;5062482;28;20094;-72
2021/11/13 05:31:00;;;;;;;13.98;4.30;;;11.50;93.40;;;;;;5074865;28;20077;-73
2021/11/13 05:33:27;;;;;;;15.73;4.78;;;11.50;93.40;;;;;;5079387;27;20122;-73
2021/11/13 05:35:57;;;;;;;14.02;4.53;;;11.50;93.40;;;;;;5076821;28;20402;-72
2021/11/13 05:38:23;;;;;;;11.48;4.90;;;11.50;93.20;;;;;;5064503;28;20036;-72
2021/11/13 05:40:48;;;;;;;14.80;5.10;;;11.50;93.20;;;;;;5084486;28;20060;-72
2021/11/13 05:43:14;;;;;;;15.25;5.72;;;11.50;93.10;;;;;;5085162;27;20074;-72
2021/11/13 05:45:41;;;;;;;11.80;5.57;;;11.50;93.00;;;;;;5083081;28;20105;-72
2021/11/13 05:48:07;;;;;;;15.90;6.43;;;11.50;92.90;;;;;;5078480;28;20074;-73
2021/11/13 05:50:33;;;;;;;19.80;5.95;;;11.50;92.80;;;;;;5084014;28;20055;-72
2021/11/13 05:52:59;;;;;;;15.15;5.53;;;11.50;92.80;;;;;;5080344;28;20035;-74
2021/11/13 05:55:25;;;;;;;11.10;4.00;;;11.50;92.60;;;;;;5075129;27;20402;-73
2021/11/13 05:57:54;;;;;;;10.82;3.63;;;11.40;92.00;;;;;;5085236;28;20040;-72
2021/11/13 06:00:22;;;;;;;7.97;3.60;;;11.30;91.80;;;;;;5081655;28;20024;-72
2021/11/13 06:02:48;;;;;;;8.05;2.90;;;11.30;91.80;;;;;;5080751;28;20044;-73
2021/11/13 06:05:14;;;;;;;7.93;2.72;;;11.30;91.70;;;;;;5082035;27;20032;-72
2021/11/13 06:07:41;;;;;;;9.65;3.38;;;11.20;91.80;;;;;;5079924;28;20050;-74
2021/11/13 06:10:08;;;;;;;10.45;3.78;;;11.10;92.10;;;;;;5078462;28;20085;-72
2021/11/13 06:12:34;;;;;;;13.38;5.40;;;11.20;92.20;;;;;;5084814;27;20040;-72
2021/11/13 06:15:00;;;;;;;13.50;5.75;;;11.20;92.40;;;;;;5085431;28;20024;-72
2021/11/13 06:17:27;;;;;;;13.55;6.00;;;11.20;92.50;;;;;;5076117;27;20033;-72
2021/11/13 06:19:54;;;;;;;14.80;6.65;;;11.20;92.60;;;;;;5060626;28;20029;-75
2021/11/13 06:22:20;;;;;;;12.48;6.45;;;11.20;92.90;;;;;;5078961;27;20036;-73
2021/11/13 06:24:45;;;;;;;14.55;6.05;;;11.20;92.90;;;;;;5079779;28;20387;-72
2021/11/13 06:27:11;;;;;;;13.30;5.70;;;11.20;93.00;;;;;;5081497;28;20033;-72
2021/11/13 06:29:37;;;;;;;12.63;5.28;;;11.20;92.90;;;;;;5055412;28;20041;-72
2021/11/13 06:32:03;;;;;;;10.35;5.68;;;11.10;93.00;;;;;;5062949;28;20044;-71
2021/11/13 06:34:29;;;;;;;12.45;6.00;;;11.20;93.10;;;;;;5087098;28;20117;-75
2021/11/13 06:36:55;;;;;;;12.45;5.63;;;11.10;93.10;;;;;;5075905;28;20115;-73
2021/11/13 06:39:20;;;;;;;11.48;5.13;;;11.10;93.10;;;;;;5076754;28;20496;-72
2021/11/13 06:41:46;;;;;;;11.05;5.32;;;11.10;93.10;;;;;;5067469;28;20063;-71
2021/11/13 06:44:12;;;;;;;10.70;4.63;;;11.10;93.20;;;;;;5061402;28;20095;-72
2021/11/13 06:46:37;;;;;;;9.40;5.28;;;11.10;93.10;;;;;;5061563;28;20043;-72
2021/11/13 06:49:03;;;;;;;14.23;5.43;;;11.10;93.30;;;;;;5061069;28;20388;-72
2021/11/13 06:51:29;;;;;;;15.98;6.28;;;11.10;93.20;;;;;;5075107;27;20040;-72
2021/11/13 06:53:55;;;;;;;12.50;6.38;;;11.10;93.30;;;;;;5081168;28;20036;-72
2021/11/13 06:56:21;;;;;;;13.05;7.10;;;11.10;93.30;;;;;;5085184;28;20054;-72
2021/11/13 06:58:47;;;;;;;13.90;7.03;;;11.10;93.30;;;;;;5089197;28;20444;-71
2021/11/13 07:01:14;;;;;;;18.63;7.18;;;11.10;93.40;;;;;;5080070;28;20047;-72
2021/11/13 07:03:39;;;;;;;12.73;6.72;;;11.10;93.40;;;;;;5070433;28;20024;-72
2021/11/13 07:06:05;;;;;;;10.13;5.85;;;11.10;93.30;;;;;;5066428;28;20449;-71
2021/11/13 07:08:31;;;;;;;16.10;7.70;;;11.10;93.40;;;;;;5079571;28;20040;-72
2021/11/13 07:10:56;;;;;;;14.23;8.30;;;11.00;93.40;;;;;;5089382;28;20055;-72
2021/11/13 07:13:24;;;;;;;14.45;9.27;;;11.00;93.50;;;;;;5082336;28;20036;-71
2021/11/13 07:15:50;;;;;;;18.40;10.75;;;11.10;93.60;;;;;;5083979;28;20071;-71
2021/11/13 07:18:16;;;;;;;23.50;13.02;;;11.10;93.60;;;;;;5081848;28;20479;-71
2021/11/13 07:20:42;;;;;;;20.40;12.85;;;11.10;93.60;;;;;;5080312;28;20351;-72
2021/11/13 07:23:08;;;;;;;19.70;13.27;;;11.10;93.60;;;;;;5081533;28;20040;-72
2021/11/13 07:25:35;;;;;;;22.00;14.13;;;11.10;93.60;;;;;;5086484;28;20040;-71
2021/11/13 07:28:05;;;;;;;19.65;13.95;;;11.10;93.70;;;;;;5090380;28;20221;-72
2021/11/13 07:30:39;;;;;;;22.55;14.00;;;11.10;93.70;;;;;;5061586;28;20040;-71
2021/11/13 07:33:06;;;;;;;22.25;13.63;;;11.10;93.60;;;;;;5062853;28;20471;-71
2021/11/13 07:35:31;;;;;;;19.85;12.73;;;11.10;93.60;;;;;;5068869;28;20033;-73
2021/11/13 07:37:57;;;;;;;20.98;12.98;;;11.10;93.70;;;;;;5066938;28;20158;-72
2021/11/13 07:40:24;;;;;;;23.00;13.20;;;11.10;93.60;;;;;;5067235;27;20036;-73
2021/11/13 07:42:50;;;;;;;20.35;11.30;;;11.10;93.60;;;;;;5068497;28;20479;-72
2021/11/13 07:45:16;;;;;;;15.27;10.85;;;11.10;93.60;;;;;;5081867;27;20082;-72
2021/11/13 07:47:42;;;;;;;17.48;9.63;;;11.10;93.60;;;;;;5070702;28;20085;-73
2021/11/13 07:50:12;;;;;;;19.55;11.10;;;11.10;93.60;;;;;;5062055;28;20031;-72
2021/11/13 07:52:39;;;;;;;18.23;10.30;;;11.10;93.50;;;;;;5062603;28;20737;-73
2021/11/13 07:55:05;;;;;;;17.48;9.45;;;11.10;93.50;;;;;;5062461;28;20040;-72
2021/11/13 07:57:31;;;;;;;17.10;9.15;;;11.10;93.40;;;;;;5061637;28;20109;-72
2021/11/13 07:59:57;;;;;;;23.02;10.25;;;11.10;93.40;;;;;;5062625;28;20045;-72
2021/11/13 08:02:22;;;;;;;16.08;9.63;;;11.10;93.40;;;;;;5061181;28;20178;-72
2021/11/13 08:04:48;;;;;;;16.70;9.85;;;11.20;93.50;;;;;;5064020;28;20037;-72
2021/11/13 08:07:14;;;;;;;17.15;9.63;;;11.30;93.40;;;;;;5064226;28;20052;-72
2021/11/13 08:09:39;;;;;;;15.30;10.48;;;11.30;93.40;;;;;;5064789;28;20064;-69
2021/11/13 08:12:05;;;;;;;17.17;9.85;;;11.30;93.30;;;;;;5062970;28;20060;-69
2021/11/13 08:14:31;;;;;;;16.38;8.50;;;11.40;93.30;;;;;;5067199;28;20069;-69
2021/11/13 08:16:57;;;;;;;16.20;8.32;;;11.50;93.30;;;;;;5063430;28;20091;-71
2021/11/13 08:19:22;;;;;;;15.38;8.02;;;11.50;93.30;;;;;;5061516;28;20056;-70
2021/11/13 08:21:48;;;;;;;14.50;7.72;;;11.50;93.10;;;;;;5069961;27;20114;-68
2021/11/13 08:24:17;;;;;;;16.95;7.72;;;11.60;93.20;;;;;;5075863;28;20085;-69
2021/11/13 08:26:43;;;;;;;14.98;7.28;;;11.60;93.10;;;;;;5081097;28;20435;-69
2021/11/13 08:29:11;;;;;;;14.27;7.18;;;11.60;93.00;;;;;;5086212;28;20036;-69
2021/11/13 08:31:36;;;;;;;12.65;5.97;;;11.60;92.90;;;;;;5077000;28;20123;-69
2021/11/13 08:34:03;;;;;;;13.63;7.28;;;11.60;92.90;;;;;;5069848;28;20123;-69
2021/11/13 08:36:28;;;;;;;12.15;8.00;;;11.60;92.80;;;;;;5077876;28;20032;-69
2021/11/13 08:38:54;;;;;;;13.90;8.63;;;11.70;92.70;;;;;;5065561;28;20029;-70
2021/11/13 08:41:20;;;;;;;13.35;8.20;;;11.60;92.60;;;;;;5061663;28;20508;-70
2021/11/13 08:43:48;;;;;;;15.00;8.68;;;11.70;92.50;;;;;;5063281;28;20020;-73
2021/11/13 08:46:13;;;;;;;12.98;8.27;;;11.70;92.40;;;;;;5063174;28;20082;-72
2021/11/13 08:48:39;;;;;;;15.98;7.72;;;11.70;92.50;;;;;;5057050;28;20044;-69
2021/11/13 08:51:05;;;;;;;11.18;7.15;;;11.70;92.50;;;;;;5057121;28;20045;-74
2021/11/13 08:53:31;;;;;;;12.63;7.40;;;11.70;92.50;;;;;;5061862;28;20037;-68
2021/11/13 08:55:57;;;;;;;14.18;8.30;;;11.80;92.50;;;;;;5065108;28;20029;-69
2021/11/13 08:58:23;;;;;;;12.85;7.55;;;11.80;92.50;;;;;;5065767;28;20020;-70
2021/11/13 09:00:58;;;;;;;14.95;7.70;;;11.80;92.40;;;;;;5065898;28;20460;-69
2021/11/13 09:03:31;;;;;;;15.27;7.00;;;11.80;92.30;;;;;;5062330;28;20025;-70
2021/11/13 09:05:58;;;;;;;15.55;7.43;;;11.80;92.40;;;;;;5062217;28;20171;-69
2021/11/13 09:08:24;;;;;;;15.45;7.82;;;11.70;92.50;;;;;;5056586;28;20095;-70
2021/11/13 09:10:51;;;;;;;14.75;8.57;;;11.70;92.50;;;;;;5059502;28;20048;-69
2021/11/13 09:13:19;;;;;;;19.83;10.93;;;11.70;92.50;;;;;;5065021;28;20081;-70
2021/11/13 09:15:45;;;;;;;16.08;11.35;;;11.60;92.60;;;;;;5064038;28;20039;-69
2021/11/13 09:18:11;;;;;;;23.65;19.27;;;11.60;92.90;;;;;;5062182;28;20036;-68
2021/11/13 09:20:39;;;;;;;23.63;17.60;;;11.70;92.80;;;;;;5064444;28;20392;-69
2021/11/13 09:23:06;;;;;;;21.92;16.55;;;11.70;92.90;;;;;;5063168;28;20492;-69
2021/11/13 09:25:32;;;;;;;18.05;14.00;;;11.70;92.90;;;;;;5067262;28;20052;-69
2021/11/13 09:27:59;;;;;;;21.15;13.23;;;11.80;92.90;;;;;;5075539;28;20028;-72
2021/11/13 09:30:29;;;;;;;18.70;12.35;;;11.80;92.80;;;;;;5083774;28;20032;-69
2021/11/13 09:32:55;;;;;;;20.90;12.05;;;11.80;92.80;;;;;;5076649;28;20383;-68
2021/11/13 09:35:22;;;;;;;15.57;10.35;;;11.90;92.80;;;;;;5087057;27;20112;-68
2021/11/13 09:37:48;;;;;;;11.43;8.25;;;12.00;92.80;;;;;;5084249;28;20499;-69
2021/11/13 09:40:16;;;;;;;13.15;8.45;;;12.00;92.70;;;;;;5081316;28;20047;-68
2021/11/13 09:42:45;;;;;;;12.95;7.55;;;12.00;92.60;;;;;;5082219;28;20032;-69
2021/11/13 09:45:12;;;;;;;10.02;6.72;;;12.00;92.70;;;;;;5085782;28;20032;-71
2021/11/13 09:47:38;;;;;;;12.25;6.63;;;12.10;92.70;;;;;;5080265;28;20036;-68
2021/11/13 09:50:06;;;;;;;13.77;8.63;;;12.10;92.60;;;;;;5061528;28;20037;-69
2021/11/13 09:52:32;;;;;;;13.50;7.47;;;12.20;92.50;;;;;;5062136;28;20044;-70
2021/11/13 09:54:59;;;;;;;15.60;9.07;;;12.20;92.30;;;;;;5064971;28;20041;-70
2021/11/13 09:57:26;;;;;;;21.25;13.02;;;12.20;92.40;;;;;;5063618;28;20058;-69
2021/11/13 09:59:51;;;;;;;17.27;10.00;;;12.20;92.40;;;;;;5075179;28;20104;-68
2021/11/13 10:02:17;;;;;;;18.17;8.70;;;12.30;92.30;;;;;;5072979;28;20177;-70
2021/11/13 10:04:45;;;;;;;13.98;8.55;;;12.30;92.10;;;;;;5078210;27;20047;-67
2021/11/13 10:07:11;;;;;;;11.15;7.00;;;12.30;92.00;;;;;;5057200;28;20041;-68
2021/11/13 10:09:37;;;;;;;13.13;6.97;;;12.40;92.00;;;;;;5062657;28;20059;-69
2021/11/13 10:12:03;;;;;;;16.92;7.82;;;12.40;92.00;;;;;;5055308;28;20070;-70
2021/11/13 10:14:40;;;;;;;12.00;7.43;;;12.50;92.10;;;;;;5057824;28;20527;-69
2021/11/13 10:17:21;;;;;;;12.75;6.95;;;12.60;92.10;;;;;;5064487;28;20039;-69
2021/11/13 10:19:48;;;;;;;11.73;5.75;;;12.80;91.70;;;;;;5073054;28;20089;-69
2021/11/13 10:22:15;;;;;;;9.73;5.57;;;12.90;91.20;;;;;;5083330;28;20043;-69
2021/11/13 10:24:47;;;;;;;12.18;6.10;;;12.90;91.10;;;;;;5078805;28;20401;-69
2021/11/13 10:27:13;;;;;;;12.82;5.22;;;13.00;90.70;;;;;;5067591;28;20094;-69
2021/11/13 10:29:41;;;;;;;16.25;7.55;;;12.90;90.40;;;;;;5057018;28;20047;-70
2021/11/13 10:32:11;;;;;;;13.27;6.65;;;12.80;90.50;;;;;;5064239;28;20044;-70
2021/11/13 10:34:41;;;;;;;13.40;6.45;;;12.80;90.70;;;;;;5067699;28;20492;-69
2021/11/13 10:37:10;;;;;;;18.92;10.23;;;12.80;90.70;;;;;;5053305;28;20032;-69
2021/11/13 10:39:41;;;;;;;11.63;5.68;;;12.70;90.60;;;;;;5055984;28;20090;-70
2021/11/13 10:42:12;;;;;;;13.55;7.57;;;12.70;90.40;;;;;;5064343;28;20480;-70
2021/11/13 10:44:40;;;;;;;11.00;5.38;;;12.70;90.60;;;;;;5072672;28;20104;-70
2021/11/13 10:47:18;;;;;;;17.42;10.32;;;12.60;90.30;;;;;;5070891;27;20083;-70
2021/11/13 10:49:47;;;;;;;9.02;5.30;;;12.70;90.30;;;;;;5070908;28;20043;-70
2021/11/13 10:52:13;;;;;;;15.23;6.00;;;12.80;90.00;;;;;;5064841;28;20052;-70
2021/11/13 10:54:49;;;;;;;11.80;5.28;;;12.70;89.50;;;;;;5065503;28;20058;-71
2021/11/13 10:57:27;;;;;;;8.52;3.58;;;12.80;89.30;;;;;;5060487;28;20036;-70
2021/11/13 10:59:53;;;;;;;7.93;4.00;;;12.80;89.40;;;;;;5060637;28;20063;-71
2021/11/13 11:02:21;;;;;;;10.40;4.30;;;12.80;89.70;;;;;;5061122;28;20836;-70
2021/11/13 11:04:47;;;;;;;8.57;4.28;;;12.60;90.00;;;;;;5075616;28;20387;-70
2021/11/13 11:07:20;;;;;;;10.32;4.15;;;12.60;90.40;;;;;;5083700;27;20039;-70
2021/11/13 11:09:59;;;;;;;7.13;3.65;;;12.50;90.70;;;;;;5060714;28;20032;-70
2021/11/13 11:12:30;;;;;;;9.85;4.00;;;12.50;91.10;;;;;;5071102;28;20442;-71
2021/11/13 11:14:56;;;;;;;9.95;4.30;;;12.50;91.30;;;;;;5063143;28;20043;-70
2021/11/13 11:17:27;;;;;;;11.32;4.32;;;12.50;91.30;;;;;;5056711;28;20017;-72
2021/11/13 11:19:56;;;;;;;9.90;5.38;;;12.50;91.30;;;;;;5077569;28;20039;-71
2021/11/13 11:22:24;;;;;;;11.27;6.53;;;12.50;91.40;;;;;;5072403;28;20386;-74
2021/11/13 11:24:56;;;;;;;12.82;6.63;;;12.50;91.70;;;;;;5077337;28;20115;-70
2021/11/13 11:27:35;;;;;;;9.98;5.10;;;12.50;91.70;;;;;;5080474;27;20525;-73
2021/11/13 11:30:09;;;;;;;9.43;5.30;;;12.40;91.70;;;;;;5076910;28;20040;-74
2021/11/13 11:32:49;;;;;;;;;;;12.40;91.90;;;;;;5081327;28;20067;-70
2021/11/13 11:35:18;;;;;;;8.57;3.20;;;12.40;92.00;;;;;;5081812;28;19967;-69
2021/11/13 11:37:47;;;;;;;10.95;4.00;;;12.20;91.80;;;;;;5076712;28;20037;-70
2021/11/13 11:40:40;;;;;;;11.38;5.07;;;12.20;92.10;;;;;;5074226;28;20535;-73
2021/11/13 11:43:07;;;;;;;9.48;4.35;;;12.40;92.10;;;;;;5087256;28;20044;-70
2021/11/13 11:45:36;;;;;;;8.98;4.78;;;12.50;91.90;;;;;;5071601;28;20116;-70
2021/11/13 11:48:04;;;;;;;8.35;4.45;;;12.50;91.80;;;;;;5082754;28;20307;-70
2021/11/13 11:50:32;;;;;;;10.45;3.83;;;12.60;91.70;;;;;;5076328;28;20124;-71
2021/11/13 11:53:10;;;;;;;8.98;4.22;;;12.60;91.10;;;;;;5085337;28;20039;-71
2021/11/13 11:55:38;;;;;;;10.45;4.63;;;12.60;91.10;;;;;;5075732;28;20446;-71
2021/11/13 11:58:12;;;;;;;8.65;3.80;;;12.70;91.10;;;;;;5083159;28;20040;-73
2021/11/13 12:00:39;;;;;;;8.17;4.00;;;12.70;91.00;;;;;;5069521;28;20049;-70
2021/11/13 12:03:05;;;;;;;8.38;4.63;;;12.80;90.90;;;;;;5070958;28;20279;-73
2021/11/13 12:05:37;;;;;;;11.60;4.50;;;12.90;90.50;;;;;;5056505;28;20051;-72
2021/11/13 12:08:22;;;;;;;8.50;4.03;;;13.10;90.60;;;;;;5083801;28;20055;-73
2021/11/13 12:10:52;;;;;;;14.45;5.65;;;13.10;90.20;;;;;;5073253;28;20093;-71
2021/11/13 12:13:26;;;;;;;12.75;6.30;;;13.30;90.20;;;;;;5079163;28;20495;-71
2021/11/13 12:16:00;;;;;;;14.80;5.43;;;13.40;89.90;;;;;;5070575;28;20037;-71
2021/11/13 12:18:29;;;;;;;;;;;13.40;89.70;;;;;;5067838;28;20037;-73
2021/11/13 12:21:04;;;;;;;10.43;3.28;;;13.40;89.00;;;;;;5061358;28;20400;-71
2021/11/13 12:23:39;;;;;;;6.82;2.70;;;13.30;88.00;;;;;;5095987;27;20047;-71
2021/11/13 12:26:11;;;;;;;8.52;3.10;;;13.40;88.30;;;;;;5083888;28;20040;-72
2021/11/13 12:28:57;;;;;;;9.25;3.00;;;13.30;88.30;;;;;;5080979;28;20432;-73
2021/11/13 12:31:36;;;;;;;9.55;2.95;;;13.20;88.20;;;;;;5099400;28;20472;-71
2021/11/13 12:34:04;;;;;;;9.57;2.90;;;13.10;88.30;;;;;;5084824;28;20115;-72
2021/11/13 12:36:49;;;;;;;5.32;1.70;;;13.00;88.70;;;;;;5085827;28;20028;-71
2021/11/13 12:39:20;;;;;;;2.60;1.45;;;12.80;89.40;;;;;;5082516;28;20122;-73
2021/11/13 12:41:59;;;;;;;3.55;2.05;;;12.70;89.70;;;;;;5072999;28;20033;-71